sensor_id;sensor_type;location;lat;lon;timestamp;pressure;altitude;pressure_sealevel;temperature;humidity
64139;BME280;50435;43.700;-79.318;2023-10-09T00:01:19;98789.30;;;11.79;46.65
64139;BME280;50435;43.700;-79.318;2023-10-09T00:03:46;98787.72;;;12.05;46.21
64139;BME280;50435;43.700;-79.318;2023-10-09T00:06:14;98794.53;;;11.34;47.00
64139;BME280;50435;43.700;-79.318;2023-10-09T00:08:41;98789.31;;;12.06;46.60
64139;BME280;50435;43.700;-79.318;2023-10-09T00:11:10;98791.22;;;11.81;46.69
64139;BME280;50435;43.700;-79.318;2023-10-09T00:13:37;98793.01;;;11.97;46.47
64139;BME280;50435;43.700;-79.318;2023-10-09T00:16:06;98791.73;;;11.89;46.51
64139;BME280;50435;43.700;-79.318;2023-10-09T00:18:33;98787.36;;;11.85;46.69
64139;BME280;50435;43.700;-79.318;2023-10-09T00:21:01;98788.64;;;11.42;46.97
64139;BME280;50435;43.700;-79.318;2023-10-09T00:23:29;98792.10;;;11.59;47.30
64139;BME280;50435;43.700;-79.318;2023-10-09T00:25:56;98793.43;;;11.59;47.16
64139;BME280;50435;43.700;-79.318;2023-10-09T00:28:24;98787.46;;;11.54;47.20
64139;BME280;50435;43.700;-79.318;2023-10-09T00:30:51;98789.34;;;11.70;46.83
64139;BME280;50435;43.700;-79.318;2023-10-09T00:33:18;98790.43;;;11.54;47.05
64139;BME280;50435;43.700;-79.318;2023-10-09T00:35:46;98784.20;;;11.65;46.94
64139;BME280;50435;43.700;-79.318;2023-10-09T00:38:14;98794.89;;;11.58;46.97
64139;BME280;50435;43.700;-79.318;2023-10-09T00:40:42;98795.92;;;11.43;46.66
64139;BME280;50435;43.700;-79.318;2023-10-09T00:43:09;98795.54;;;11.65;46.82
64139;BME280;50435;43.700;-79.318;2023-10-09T00:45:37;98798.49;;;11.58;46.95
64139;BME280;50435;43.700;-79.318;2023-10-09T00:48:06;98796.06;;;11.66;46.59
64139;BME280;50435;43.700;-79.318;2023-10-09T00:50:33;98793.50;;;11.62;46.80
64139;BME280;50435;43.700;-79.318;2023-10-09T00:53:01;98796.85;;;11.51;46.40
64139;BME280;50435;43.700;-79.318;2023-10-09T00:55:32;98795.57;;;11.66;46.69
64139;BME280;50435;43.700;-79.318;2023-10-09T00:57:59;98791.54;;;12.05;45.83
64139;BME280;50435;43.700;-79.318;2023-10-09T01:00:27;98791.70;;;11.68;46.59
64139;BME280;50435;43.700;-79.318;2023-10-09T01:02:55;98790.65;;;11.50;46.63
64139;BME280;50435;43.700;-79.318;2023-10-09T01:05:23;98792.46;;;11.55;46.53
64139;BME280;50435;43.700;-79.318;2023-10-09T01:07:51;98789.88;;;11.31;47.03
64139;BME280;50435;43.700;-79.318;2023-10-09T01:10:18;98789.58;;;11.55;46.51
64139;BME280;50435;43.700;-79.318;2023-10-09T01:12:46;98798.39;;;11.46;46.74
64139;BME280;50435;43.700;-79.318;2023-10-09T01:15:14;98791.01;;;11.55;46.74
64139;BME280;50435;43.700;-79.318;2023-10-09T01:17:42;98786.69;;;11.89;46.76
64139;BME280;50435;43.700;-79.318;2023-10-09T01:20:09;98798.25;;;11.53;46.45
64139;BME280;50435;43.700;-79.318;2023-10-09T01:22:37;98802.80;;;11.59;46.70
64139;BME280;50435;43.700;-79.318;2023-10-09T01:25:05;98801.65;;;11.32;46.97
64139;BME280;50435;43.700;-79.318;2023-10-09T01:27:32;98801.78;;;11.52;46.31
64139;BME280;50435;43.700;-79.318;2023-10-09T01:30:00;98794.41;;;11.53;46.46
64139;BME280;50435;43.700;-79.318;2023-10-09T01:32:27;98794.23;;;11.78;45.75
64139;BME280;50435;43.700;-79.318;2023-10-09T01:34:55;98795.71;;;11.65;46.08
64139;BME280;50435;43.700;-79.318;2023-10-09T01:37:22;98798.55;;;11.41;46.09
64139;BME280;50435;43.700;-79.318;2023-10-09T01:39:50;98798.55;;;11.58;45.97
64139;BME280;50435;43.700;-79.318;2023-10-09T01:42:19;98789.07;;;11.66;45.38
64139;BME280;50435;43.700;-79.318;2023-10-09T01:44:47;98798.21;;;11.81;46.00
64139;BME280;50435;43.700;-79.318;2023-10-09T01:47:14;98802.50;;;11.58;46.07
64139;BME280;50435;43.700;-79.318;2023-10-09T01:49:42;98809.56;;;11.54;46.20
64139;BME280;50435;43.700;-79.318;2023-10-09T01:52:11;98808.39;;;11.55;46.13
64139;BME280;50435;43.700;-79.318;2023-10-09T01:54:39;98807.51;;;11.65;45.73
64139;BME280;50435;43.700;-79.318;2023-10-09T01:57:08;98810.80;;;11.57;46.14
64139;BME280;50435;43.700;-79.318;2023-10-09T01:59:36;98806.52;;;12.09;45.73
64139;BME280;50435;43.700;-79.318;2023-10-09T02:02:04;98801.88;;;11.63;45.80
64139;BME280;50435;43.700;-79.318;2023-10-09T02:04:31;98804.82;;;11.38;45.81
64139;BME280;50435;43.700;-79.318;2023-10-09T02:06:58;98803.22;;;11.64;45.78
64139;BME280;50435;43.700;-79.318;2023-10-09T02:09:26;98803.19;;;11.77;45.47
64139;BME280;50435;43.700;-79.318;2023-10-09T02:11:54;98801.83;;;11.91;45.73
64139;BME280;50435;43.700;-79.318;2023-10-09T02:14:22;98801.12;;;11.83;45.38
64139;BME280;50435;43.700;-79.318;2023-10-09T02:16:50;98800.29;;;11.82;45.22
64139;BME280;50435;43.700;-79.318;2023-10-09T02:19:17;98801.43;;;11.81;45.20
64139;BME280;50435;43.700;-79.318;2023-10-09T02:21:45;98797.88;;;11.81;45.07
64139;BME280;50435;43.700;-79.318;2023-10-09T02:24:13;98795.27;;;11.82;45.21
64139;BME280;50435;43.700;-79.318;2023-10-09T02:26:41;98799.33;;;11.71;45.45
64139;BME280;50435;43.700;-79.318;2023-10-09T02:29:09;98797.19;;;11.87;45.21
64139;BME280;50435;43.700;-79.318;2023-10-09T02:31:37;98800.06;;;11.67;45.47
64139;BME280;50435;43.700;-79.318;2023-10-09T02:34:04;98795.68;;;11.50;45.05
64139;BME280;50435;43.700;-79.318;2023-10-09T02:36:32;98798.72;;;11.86;45.50
64139;BME280;50435;43.700;-79.318;2023-10-09T02:39:00;98803.26;;;11.82;45.21
64139;BME280;50435;43.700;-79.318;2023-10-09T02:41:27;98804.41;;;12.19;44.47
64139;BME280;50435;43.700;-79.318;2023-10-09T02:43:54;98799.72;;;11.92;44.64
64139;BME280;50435;43.700;-79.318;2023-10-09T02:46:22;98799.02;;;11.54;45.07
64139;BME280;50435;43.700;-79.318;2023-10-09T02:48:50;98798.80;;;11.76;45.30
64139;BME280;50435;43.700;-79.318;2023-10-09T02:51:18;98798.18;;;11.79;45.03
64139;BME280;50435;43.700;-79.318;2023-10-09T02:53:45;98794.60;;;11.79;45.27
64139;BME280;50435;43.700;-79.318;2023-10-09T02:56:12;98794.23;;;11.80;45.12
64139;BME280;50435;43.700;-79.318;2023-10-09T02:58:40;98788.68;;;11.95;44.62
64139;BME280;50435;43.700;-79.318;2023-10-09T03:01:10;98788.52;;;11.88;44.52
64139;BME280;50435;43.700;-79.318;2023-10-09T03:03:38;98789.48;;;11.97;45.01
64139;BME280;50435;43.700;-79.318;2023-10-09T03:06:06;98787.96;;;11.45;45.38
64139;BME280;50435;43.700;-79.318;2023-10-09T03:08:33;98789.49;;;11.76;45.03
64139;BME280;50435;43.700;-79.318;2023-10-09T03:11:01;98784.71;;;11.51;44.77
64139;BME280;50435;43.700;-79.318;2023-10-09T03:13:28;98784.85;;;12.00;44.41
64139;BME280;50435;43.700;-79.318;2023-10-09T03:15:56;98785.66;;;11.87;44.99
64139;BME280;50435;43.700;-79.318;2023-10-09T03:18:24;98779.57;;;11.95;44.80
64139;BME280;50435;43.700;-79.318;2023-10-09T03:20:51;98781.70;;;11.80;45.27
64139;BME280;50435;43.700;-79.318;2023-10-09T03:23:19;98774.86;;;11.96;44.64
64139;BME280;50435;43.700;-79.318;2023-10-09T03:25:46;98790.63;;;11.79;44.88
64139;BME280;50435;43.700;-79.318;2023-10-09T03:28:14;98779.41;;;11.51;45.04
64139;BME280;50435;43.700;-79.318;2023-10-09T03:30:42;98774.76;;;11.75;44.75
64139;BME280;50435;43.700;-79.318;2023-10-09T03:33:10;98774.14;;;11.86;44.51
64139;BME280;50435;43.700;-79.318;2023-10-09T03:35:38;98774.82;;;11.88;44.46
64139;BME280;50435;43.700;-79.318;2023-10-09T03:38:06;98770.08;;;11.89;44.60
64139;BME280;50435;43.700;-79.318;2023-10-09T03:40:33;98775.70;;;11.89;44.91
64139;BME280;50435;43.700;-79.318;2023-10-09T03:43:01;98769.71;;;11.51;44.52
64139;BME280;50435;43.700;-79.318;2023-10-09T03:45:29;98763.89;;;11.98;44.57
64139;BME280;50435;43.700;-79.318;2023-10-09T03:47:57;98765.15;;;11.87;44.66
64139;BME280;50435;43.700;-79.318;2023-10-09T03:50:25;98772.34;;;12.07;44.68
64139;BME280;50435;43.700;-79.318;2023-10-09T03:52:53;98767.90;;;11.93;44.65
64139;BME280;50435;43.700;-79.318;2023-10-09T03:55:21;98770.42;;;11.80;45.06
64139;BME280;50435;43.700;-79.318;2023-10-09T03:57:48;98766.25;;;11.78;44.78
64139;BME280;50435;43.700;-79.318;2023-10-09T04:00:17;98757.84;;;11.81;44.24
64139;BME280;50435;43.700;-79.318;2023-10-09T04:02:44;98759.17;;;11.89;44.89
64139;BME280;50435;43.700;-79.318;2023-10-09T04:05:12;98759.23;;;11.83;44.88
64139;BME280;50435;43.700;-79.318;2023-10-09T04:07:40;98755.03;;;11.89;44.68
64139;BME280;50435;43.700;-79.318;2023-10-09T04:10:08;98750.61;;;11.63;44.65
64139;BME280;50435;43.700;-79.318;2023-10-09T04:12:36;98744.58;;;11.88;44.84
64139;BME280;50435;43.700;-79.318;2023-10-09T04:15:04;98748.37;;;11.59;44.82
64139;BME280;50435;43.700;-79.318;2023-10-09T04:17:31;98749.02;;;11.60;44.87
64139;BME280;50435;43.700;-79.318;2023-10-09T04:20:00;98750.56;;;11.79;45.35
64139;BME280;50435;43.700;-79.318;2023-10-09T04:22:27;98748.68;;;11.80;45.10
64139;BME280;50435;43.700;-79.318;2023-10-09T04:24:55;98743.31;;;11.68;45.16
64139;BME280;50435;43.700;-79.318;2023-10-09T04:27:23;98748.42;;;11.67;45.25
64139;BME280;50435;43.700;-79.318;2023-10-09T04:29:51;98744.79;;;11.67;45.04
64139;BME280;50435;43.700;-79.318;2023-10-09T04:32:18;98750.71;;;11.60;45.31
64139;BME280;50435;43.700;-79.318;2023-10-09T04:34:45;98745.23;;;11.69;45.14
64139;BME280;50435;43.700;-79.318;2023-10-09T04:37:12;98748.03;;;11.46;45.66
64139;BME280;50435;43.700;-79.318;2023-10-09T04:39:39;98749.78;;;11.48;45.55
64139;BME280;50435;43.700;-79.318;2023-10-09T04:42:06;98739.94;;;11.45;45.64
64139;BME280;50435;43.700;-79.318;2023-10-09T04:44:34;98741.12;;;11.54;45.51
64139;BME280;50435;43.700;-79.318;2023-10-09T04:47:01;98745.74;;;10.98;45.68
64139;BME280;50435;43.700;-79.318;2023-10-09T04:49:29;98737.57;;;11.50;45.48
64139;BME280;50435;43.700;-79.318;2023-10-09T04:51:56;98736.83;;;11.47;45.61
64139;BME280;50435;43.700;-79.318;2023-10-09T04:54:23;98735.22;;;11.45;45.54
64139;BME280;50435;43.700;-79.318;2023-10-09T04:56:50;98732.78;;;11.61;45.14
64139;BME280;50435;43.700;-79.318;2023-10-09T04:59:18;98731.60;;;11.40;45.41
64139;BME280;50435;43.700;-79.318;2023-10-09T05:01:46;98732.01;;;11.40;45.33
64139;BME280;50435;43.700;-79.318;2023-10-09T05:04:14;98728.87;;;11.27;45.23
64139;BME280;50435;43.700;-79.318;2023-10-09T05:06:41;98723.48;;;11.41;45.32
64139;BME280;50435;43.700;-79.318;2023-10-09T05:09:10;98723.49;;;11.21;45.19
64139;BME280;50435;43.700;-79.318;2023-10-09T05:11:37;98723.69;;;11.36;45.42
64139;BME280;50435;43.700;-79.318;2023-10-09T05:14:05;98723.04;;;11.18;45.15
64139;BME280;50435;43.700;-79.318;2023-10-09T05:16:32;98718.00;;;11.69;45.16
64139;BME280;50435;43.700;-79.318;2023-10-09T05:19:00;98717.76;;;11.21;45.53
64139;BME280;50435;43.700;-79.318;2023-10-09T05:21:30;98719.86;;;11.81;45.35
64139;BME280;50435;43.700;-79.318;2023-10-09T05:23:58;98716.89;;;11.16;45.58
64139;BME280;50435;43.700;-79.318;2023-10-09T05:26:25;98719.44;;;11.34;45.20
64139;BME280;50435;43.700;-79.318;2023-10-09T05:28:52;98715.28;;;11.54;45.01
64139;BME280;50435;43.700;-79.318;2023-10-09T05:31:20;98712.70;;;11.47;44.87
64139;BME280;50435;43.700;-79.318;2023-10-09T05:33:48;98712.38;;;11.34;45.13
64139;BME280;50435;43.700;-79.318;2023-10-09T05:36:15;98707.41;;;11.49;44.77
64139;BME280;50435;43.700;-79.318;2023-10-09T05:38:43;98708.57;;;11.24;45.36
64139;BME280;50435;43.700;-79.318;2023-10-09T05:41:11;98716.69;;;11.31;45.21
64139;BME280;50435;43.700;-79.318;2023-10-09T05:43:38;98716.75;;;11.39;44.98
64139;BME280;50435;43.700;-79.318;2023-10-09T05:46:05;98714.55;;;11.30;45.03
64139;BME280;50435;43.700;-79.318;2023-10-09T05:48:33;98716.45;;;11.35;44.92
64139;BME280;50435;43.700;-79.318;2023-10-09T05:51:00;98714.44;;;11.24;45.29
64139;BME280;50435;43.700;-79.318;2023-10-09T05:53:27;98717.28;;;10.91;45.39
64139;BME280;50435;43.700;-79.318;2023-10-09T05:55:54;98719.87;;;11.37;45.09
64139;BME280;50435;43.700;-79.318;2023-10-09T05:58:22;98718.86;;;11.30;45.15
64139;BME280;50435;43.700;-79.318;2023-10-09T06:00:50;98712.09;;;11.28;45.08
64139;BME280;50435;43.700;-79.318;2023-10-09T06:03:17;98714.82;;;11.33;44.94
64139;BME280;50435;43.700;-79.318;2023-10-09T06:05:45;98706.50;;;11.35;45.08
64139;BME280;50435;43.700;-79.318;2023-10-09T06:08:13;98710.73;;;11.45;44.96
64139;BME280;50435;43.700;-79.318;2023-10-09T06:10:41;98705.83;;;11.42;45.12
64139;BME280;50435;43.700;-79.318;2023-10-09T06:13:09;98706.04;;;11.43;44.41
64139;BME280;50435;43.700;-79.318;2023-10-09T06:15:37;98691.77;;;11.25;45.03
64139;BME280;50435;43.700;-79.318;2023-10-09T06:18:05;98702.64;;;11.17;45.15
64139;BME280;50435;43.700;-79.318;2023-10-09T06:20:32;98693.12;;;11.40;45.16
64139;BME280;50435;43.700;-79.318;2023-10-09T06:23:00;98683.81;;;11.52;44.95
64139;BME280;50435;43.700;-79.318;2023-10-09T06:25:28;98688.11;;;11.14;45.23
64139;BME280;50435;43.700;-79.318;2023-10-09T06:27:55;98688.63;;;11.25;45.10
64139;BME280;50435;43.700;-79.318;2023-10-09T06:30:22;98686.78;;;11.31;45.22
64139;BME280;50435;43.700;-79.318;2023-10-09T06:32:50;98685.25;;;11.39;45.19
64139;BME280;50435;43.700;-79.318;2023-10-09T06:35:18;98685.68;;;11.09;45.12
64139;BME280;50435;43.700;-79.318;2023-10-09T06:37:47;98686.66;;;11.53;44.76
64139;BME280;50435;43.700;-79.318;2023-10-09T06:40:14;98681.05;;;11.25;44.71
64139;BME280;50435;43.700;-79.318;2023-10-09T06:42:42;98686.45;;;11.23;44.65
64139;BME280;50435;43.700;-79.318;2023-10-09T06:45:10;98693.67;;;11.10;45.03
64139;BME280;50435;43.700;-79.318;2023-10-09T06:47:38;98683.56;;;11.21;44.91
64139;BME280;50435;43.700;-79.318;2023-10-09T06:50:06;98675.96;;;11.02;44.64
64139;BME280;50435;43.700;-79.318;2023-10-09T06:52:33;98677.37;;;11.24;44.62
64139;BME280;50435;43.700;-79.318;2023-10-09T06:55:00;98685.41;;;11.07;44.96
64139;BME280;50435;43.700;-79.318;2023-10-09T06:57:28;98682.74;;;11.19;44.67
64139;BME280;50435;43.700;-79.318;2023-10-09T06:59:56;98681.60;;;10.78;45.06
64139;BME280;50435;43.700;-79.318;2023-10-09T07:02:23;98679.59;;;11.42;44.86
64139;BME280;50435;43.700;-79.318;2023-10-09T07:04:51;98683.65;;;11.28;45.02
64139;BME280;50435;43.700;-79.318;2023-10-09T07:07:18;98680.21;;;11.26;44.90
64139;BME280;50435;43.700;-79.318;2023-10-09T07:09:45;98684.63;;;11.54;45.03
64139;BME280;50435;43.700;-79.318;2023-10-09T07:12:12;98687.77;;;11.15;44.71
64139;BME280;50435;43.700;-79.318;2023-10-09T07:14:40;98685.10;;;10.98;44.98
64139;BME280;50435;43.700;-79.318;2023-10-09T07:17:09;98682.54;;;11.19;44.59
64139;BME280;50435;43.700;-79.318;2023-10-09T07:19:37;98684.51;;;11.34;44.89
64139;BME280;50435;43.700;-79.318;2023-10-09T07:22:04;98683.67;;;10.82;45.07
64139;BME280;50435;43.700;-79.318;2023-10-09T07:24:33;98685.71;;;11.09;45.06
64139;BME280;50435;43.700;-79.318;2023-10-09T07:27:00;98680.82;;;11.27;45.07
64139;BME280;50435;43.700;-79.318;2023-10-09T07:29:30;98676.62;;;10.91;45.25
64139;BME280;50435;43.700;-79.318;2023-10-09T07:31:57;98674.87;;;11.20;44.97
64139;BME280;50435;43.700;-79.318;2023-10-09T07:34:24;98676.32;;;11.46;45.02
64139;BME280;50435;43.700;-79.318;2023-10-09T07:36:52;98676.99;;;11.18;45.16
64139;BME280;50435;43.700;-79.318;2023-10-09T07:39:19;98672.97;;;10.97;45.08
64139;BME280;50435;43.700;-79.318;2023-10-09T07:41:47;98675.40;;;11.26;44.95
64139;BME280;50435;43.700;-79.318;2023-10-09T07:44:15;98676.78;;;10.97;45.05
64139;BME280;50435;43.700;-79.318;2023-10-09T07:46:42;98674.43;;;11.17;45.20
64139;BME280;50435;43.700;-79.318;2023-10-09T07:49:09;98680.95;;;11.03;45.03
64139;BME280;50435;43.700;-79.318;2023-10-09T07:51:36;98673.86;;;10.86;44.94
64139;BME280;50435;43.700;-79.318;2023-10-09T07:54:05;98674.85;;;11.06;44.62
64139;BME280;50435;43.700;-79.318;2023-10-09T07:56:32;98675.66;;;11.29;44.74
64139;BME280;50435;43.700;-79.318;2023-10-09T07:59:00;98674.41;;;11.26;44.72
64139;BME280;50435;43.700;-79.318;2023-10-09T08:01:27;98671.96;;;11.57;44.79
64139;BME280;50435;43.700;-79.318;2023-10-09T08:03:55;98673.42;;;11.16;45.12
64139;BME280;50435;43.700;-79.318;2023-10-09T08:06:24;98673.79;;;11.03;44.86
64139;BME280;50435;43.700;-79.318;2023-10-09T08:08:52;98677.49;;;11.31;44.68
64139;BME280;50435;43.700;-79.318;2023-10-09T08:11:19;98681.66;;;11.09;44.82
64139;BME280;50435;43.700;-79.318;2023-10-09T08:13:46;98682.41;;;11.03;44.90
64139;BME280;50435;43.700;-79.318;2023-10-09T08:16:13;98680.47;;;11.28;44.70
64139;BME280;50435;43.700;-79.318;2023-10-09T08:18:40;98673.31;;;11.69;44.67
64139;BME280;50435;43.700;-79.318;2023-10-09T08:21:08;98675.14;;;11.37;44.61
64139;BME280;50435;43.700;-79.318;2023-10-09T08:23:36;98678.61;;;11.58;44.61
64139;BME280;50435;43.700;-79.318;2023-10-09T08:26:05;98674.37;;;11.09;44.81
64139;BME280;50435;43.700;-79.318;2023-10-09T08:28:32;98679.84;;;11.39;44.45
64139;BME280;50435;43.700;-79.318;2023-10-09T08:30:59;98682.21;;;11.34;44.48
64139;BME280;50435;43.700;-79.318;2023-10-09T08:33:26;98682.17;;;11.09;44.53
64139;BME280;50435;43.700;-79.318;2023-10-09T08:35:54;98678.63;;;11.08;44.83
64139;BME280;50435;43.700;-79.318;2023-10-09T08:38:22;98684.60;;;11.25;44.47
64139;BME280;50435;43.700;-79.318;2023-10-09T08:40:51;98688.71;;;11.40;44.53
64139;BME280;50435;43.700;-79.318;2023-10-09T08:43:19;98684.72;;;11.19;44.40
64139;BME280;50435;43.700;-79.318;2023-10-09T08:45:48;98675.46;;;11.20;44.40
64139;BME280;50435;43.700;-79.318;2023-10-09T08:48:16;98676.65;;;11.20;44.45
64139;BME280;50435;43.700;-79.318;2023-10-09T08:50:43;98688.57;;;11.30;44.10
64139;BME280;50435;43.700;-79.318;2023-10-09T08:53:12;98680.27;;;11.09;44.65
64139;BME280;50435;43.700;-79.318;2023-10-09T08:55:41;98682.01;;;11.08;44.67
64139;BME280;50435;43.700;-79.318;2023-10-09T08:58:09;98667.07;;;11.14;44.52
64139;BME280;50435;43.700;-79.318;2023-10-09T09:00:39;98678.97;;;11.20;44.86
64139;BME280;50435;43.700;-79.318;2023-10-09T09:03:07;98677.75;;;11.19;44.53
64139;BME280;50435;43.700;-79.318;2023-10-09T09:05:34;98676.73;;;11.64;44.71
64139;BME280;50435;43.700;-79.318;2023-10-09T09:08:02;98674.76;;;10.65;44.65
64139;BME280;50435;43.700;-79.318;2023-10-09T09:10:30;98676.03;;;11.17;44.70
64139;BME280;50435;43.700;-79.318;2023-10-09T09:12:57;98678.20;;;11.31;44.84
64139;BME280;50435;43.700;-79.318;2023-10-09T09:15:27;98682.36;;;11.39;44.70
64139;BME280;50435;43.700;-79.318;2023-10-09T09:18:04;98686.77;;;11.11;44.87
64139;BME280;50435;43.700;-79.318;2023-10-09T09:20:31;98683.15;;;11.29;44.75
64139;BME280;50435;43.700;-79.318;2023-10-09T09:22:59;98686.93;;;11.53;44.92
64139;BME280;50435;43.700;-79.318;2023-10-09T09:25:40;98689.47;;;11.40;44.73
64139;BME280;50435;43.700;-79.318;2023-10-09T09:28:08;98687.75;;;11.08;44.77
64139;BME280;50435;43.700;-79.318;2023-10-09T09:30:35;98691.79;;;11.01;44.89
64139;BME280;50435;43.700;-79.318;2023-10-09T09:33:18;98691.91;;;10.39;45.09
64139;BME280;50435;43.700;-79.318;2023-10-09T09:35:56;98692.87;;;10.91;45.21
64139;BME280;50435;43.700;-79.318;2023-10-09T09:38:26;98691.27;;;11.18;44.97
64139;BME280;50435;43.700;-79.318;2023-10-09T09:40:56;98694.19;;;10.96;45.20
64139;BME280;50435;43.700;-79.318;2023-10-09T09:43:25;98688.60;;;11.18;45.08
64139;BME280;50435;43.700;-79.318;2023-10-09T09:45:53;98685.75;;;10.82;45.28
64139;BME280;50435;43.700;-79.318;2023-10-09T09:48:21;98694.73;;;11.47;44.97
64139;BME280;50435;43.700;-79.318;2023-10-09T09:50:52;98699.05;;;11.32;45.22
64139;BME280;50435;43.700;-79.318;2023-10-09T09:53:20;98696.92;;;11.19;45.01
64139;BME280;50435;43.700;-79.318;2023-10-09T09:55:51;98699.89;;;11.24;44.84
64139;BME280;50435;43.700;-79.318;2023-10-09T09:58:19;98693.22;;;11.36;45.16
64139;BME280;50435;43.700;-79.318;2023-10-09T10:00:49;98698.19;;;10.97;45.23
64139;BME280;50435;43.700;-79.318;2023-10-09T10:03:20;98695.67;;;10.78;45.13
64139;BME280;50435;43.700;-79.318;2023-10-09T10:05:51;98701.99;;;11.05;45.10
64139;BME280;50435;43.700;-79.318;2023-10-09T10:08:20;98699.13;;;10.79;45.10
64139;BME280;50435;43.700;-79.318;2023-10-09T10:10:49;98701.18;;;10.83;45.17
64139;BME280;50435;43.700;-79.318;2023-10-09T10:13:17;98699.77;;;10.81;45.21
64139;BME280;50435;43.700;-79.318;2023-10-09T10:15:58;98700.11;;;11.36;44.89
64139;BME280;50435;43.700;-79.318;2023-10-09T10:18:31;98703.59;;;11.31;44.87
64139;BME280;50435;43.700;-79.318;2023-10-09T10:21:10;98701.14;;;11.26;44.91
64139;BME280;50435;43.700;-79.318;2023-10-09T10:23:38;98700.43;;;10.72;45.12
64139;BME280;50435;43.700;-79.318;2023-10-09T10:26:17;98705.04;;;10.92;45.13
64139;BME280;50435;43.700;-79.318;2023-10-09T10:29:14;98704.36;;;10.68;45.17
64139;BME280;50435;43.700;-79.318;2023-10-09T10:31:58;98709.60;;;11.16;45.14
64139;BME280;50435;43.700;-79.318;2023-10-09T10:34:26;98711.79;;;10.88;45.24
64139;BME280;50435;43.700;-79.318;2023-10-09T10:37:19;98712.65;;;11.14;45.16
64139;BME280;50435;43.700;-79.318;2023-10-09T10:39:50;98718.62;;;10.84;45.20
64139;BME280;50435;43.700;-79.318;2023-10-09T10:42:18;98713.13;;;10.93;44.82
64139;BME280;50435;43.700;-79.318;2023-10-09T10:44:46;98719.72;;;11.29;44.83
64139;BME280;50435;43.700;-79.318;2023-10-09T10:47:13;98719.27;;;11.07;44.86
64139;BME280;50435;43.700;-79.318;2023-10-09T10:49:43;98716.91;;;11.28;44.82
64139;BME280;50435;43.700;-79.318;2023-10-09T10:52:20;98715.16;;;10.94;44.51
64139;BME280;50435;43.700;-79.318;2023-10-09T10:54:48;98711.75;;;10.95;45.20
64139;BME280;50435;43.700;-79.318;2023-10-09T10:57:18;98712.83;;;11.41;44.71
64139;BME280;50435;43.700;-79.318;2023-10-09T10:59:46;98712.07;;;10.97;44.93
64139;BME280;50435;43.700;-79.318;2023-10-09T11:02:14;98722.66;;;10.95;45.09
64139;BME280;50435;43.700;-79.318;2023-10-09T11:04:41;98724.12;;;11.32;44.85
64139;BME280;50435;43.700;-79.318;2023-10-09T11:07:08;98720.49;;;10.93;44.85
64139;BME280;50435;43.700;-79.318;2023-10-09T11:09:44;98722.33;;;11.19;45.13
64139;BME280;50435;43.700;-79.318;2023-10-09T11:12:11;98722.71;;;11.06;44.81
64139;BME280;50435;43.700;-79.318;2023-10-09T11:14:45;98721.19;;;10.92;45.26
64139;BME280;50435;43.700;-79.318;2023-10-09T11:17:16;98719.84;;;11.00;44.93
64139;BME280;50435;43.700;-79.318;2023-10-09T11:19:44;98716.26;;;11.26;45.01
64139;BME280;50435;43.700;-79.318;2023-10-09T11:22:12;98722.00;;;11.06;44.82
64139;BME280;50435;43.700;-79.318;2023-10-09T11:24:39;98730.66;;;10.65;45.26
64139;BME280;50435;43.700;-79.318;2023-10-09T11:27:08;98730.18;;;10.85;44.82
64139;BME280;50435;43.700;-79.318;2023-10-09T11:29:48;98732.48;;;10.99;44.97
64139;BME280;50435;43.700;-79.318;2023-10-09T11:32:17;98732.35;;;10.90;45.06
64139;BME280;50435;43.700;-79.318;2023-10-09T11:34:46;98731.86;;;11.13;45.07
64139;BME280;50435;43.700;-79.318;2023-10-09T11:37:15;98735.58;;;10.64;44.98
64139;BME280;50435;43.700;-79.318;2023-10-09T11:39:42;98741.43;;;11.15;45.01
64139;BME280;50435;43.700;-79.318;2023-10-09T11:42:10;98739.28;;;10.64;45.06
64139;BME280;50435;43.700;-79.318;2023-10-09T11:44:42;98743.00;;;11.14;45.10
64139;BME280;50435;43.700;-79.318;2023-10-09T11:47:10;98744.23;;;10.84;45.16
64139;BME280;50435;43.700;-79.318;2023-10-09T11:49:48;98746.24;;;11.27;44.64
64139;BME280;50435;43.700;-79.318;2023-10-09T11:52:16;98744.82;;;10.69;44.92
64139;BME280;50435;43.700;-79.318;2023-10-09T11:54:43;98747.00;;;10.80;45.26
64139;BME280;50435;43.700;-79.318;2023-10-09T11:57:10;98747.38;;;10.91;44.90
64139;BME280;50435;43.700;-79.318;2023-10-09T11:59:37;98747.62;;;11.15;44.75
64139;BME280;50435;43.700;-79.318;2023-10-09T12:02:06;98747.48;;;10.90;44.69
64139;BME280;50435;43.700;-79.318;2023-10-09T12:04:34;98744.09;;;10.88;44.67
64139;BME280;50435;43.700;-79.318;2023-10-09T12:07:02;98745.64;;;10.96;44.65
64139;BME280;50435;43.700;-79.318;2023-10-09T12:09:29;98743.89;;;11.24;44.57
64139;BME280;50435;43.700;-79.318;2023-10-09T12:11:56;98745.54;;;10.86;44.75
64139;BME280;50435;43.700;-79.318;2023-10-09T12:14:24;98742.11;;;10.85;44.76
64139;BME280;50435;43.700;-79.318;2023-10-09T12:16:51;98747.22;;;11.22;44.59
64139;BME280;50435;43.700;-79.318;2023-10-09T12:19:18;98747.75;;;11.06;45.19
64139;BME280;50435;43.700;-79.318;2023-10-09T12:21:46;98749.83;;;10.87;44.81
64139;BME280;50435;43.700;-79.318;2023-10-09T12:24:14;98757.82;;;10.92;44.70
64139;BME280;50435;43.700;-79.318;2023-10-09T12:26:41;98757.21;;;10.84;44.65
64139;BME280;50435;43.700;-79.318;2023-10-09T12:29:09;98757.10;;;10.59;44.85
64139;BME280;50435;43.700;-79.318;2023-10-09T12:31:37;98759.40;;;11.30;44.38
64139;BME280;50435;43.700;-79.318;2023-10-09T12:34:04;98762.95;;;10.82;44.24
64139;BME280;50435;43.700;-79.318;2023-10-09T12:36:32;98768.52;;;11.35;44.20
64139;BME280;50435;43.700;-79.318;2023-10-09T12:38:59;98770.98;;;10.93;44.73
64139;BME280;50435;43.700;-79.318;2023-10-09T12:41:26;98774.56;;;10.98;44.49
64139;BME280;50435;43.700;-79.318;2023-10-09T12:43:54;98776.58;;;10.92;44.47
64139;BME280;50435;43.700;-79.318;2023-10-09T12:46:21;98776.44;;;10.66;44.73